createdAt,value
2019-03-18T00:02:44.835Z,54.54
2019-03-18T00:07:51.213Z,54.39
2019-03-18T00:12:57.348Z,54.16
2019-03-18T00:18:05.104Z,54.86
2019-03-18T00:23:14.552Z,54.90
2019-03-18T00:28:24.270Z,55.26
2019-03-18T00:33:34.914Z,54.50
2019-03-18T00:38:44.251Z,55.37
2019-03-18T00:43:51.733Z,54.94
2019-03-18T00:49:02.521Z,54.54
2019-03-18T00:54:14.156Z,53.97
2019-03-18T00:59:22.848Z,54.43
2019-03-18T01:04:31.270Z,55.13
2019-03-18T01:09:40.273Z,54.45
2019-03-18T01:14:49.980Z,54.96
2019-03-18T01:19:58.977Z,54.69
2019-03-18T01:25:09.401Z,54.68
2019-03-18T01:30:17.518Z,54.69
2019-03-18T01:35:25.997Z,54.22
2019-03-18T01:40:35.114Z,54.83
2019-03-18T01:45:42.904Z,54.25
2019-03-18T01:50:52.338Z,54.23
2019-03-18T01:56:01.336Z,54.96
2019-03-18T02:01:08.524Z,55.31
2019-03-18T02:06:15.539Z,55.48
2019-03-18T02:11:21.766Z,56.43
2019-03-18T02:16:32.062Z,57.42
2019-03-18T02:21:38.858Z,57.32
2019-03-18T02:26:46.088Z,56.95
2019-03-18T02:31:53.309Z,57.19
2019-03-18T02:37:05.144Z,56.93
2019-03-18T02:42:12.220Z,57.01
2019-03-18T02:47:19.823Z,57.63
2019-03-18T02:52:26.973Z,57.65
2019-03-18T02:57:33.569Z,56.83
2019-03-18T03:02:41.269Z,57.00
2019-03-18T03:07:49.016Z,57.23
2019-03-18T03:12:56.679Z,56.80
2019-03-18T03:18:05.262Z,56.99
2019-03-18T03:23:12.655Z,56.86
2019-03-18T03:28:19.458Z,57.04
2019-03-18T03:33:26.446Z,56.86
2019-03-18T03:38:32.601Z,56.50
2019-03-18T03:43:38.559Z,55.84
2019-03-18T03:48:45.143Z,55.81
2019-03-18T03:53:51.922Z,56.05
2019-03-18T03:58:58.912Z,55.99
2019-03-18T04:04:06.540Z,56.02
2019-03-18T04:09:15.419Z,56.25
2019-03-18T04:14:25.523Z,56.66
2019-03-18T04:19:35.381Z,56.73
2019-03-18T04:24:42.752Z,56.32
2019-03-18T04:29:49.201Z,56.48
2019-03-18T04:34:56.177Z,57.00
2019-03-18T04:40:03.474Z,56.52
2019-03-18T04:45:10.981Z,56.45
2019-03-18T04:50:17.837Z,55.97
2019-03-18T04:55:25.837Z,55.61
2019-03-18T05:00:36.579Z,54.89
2019-03-18T05:05:45.530Z,56.23
2019-03-18T05:10:54.927Z,55.79
2019-03-18T05:16:02.000Z,55.66
2019-03-18T05:21:12.023Z,56.22
2019-03-18T05:26:18.540Z,55.63
2019-03-18T05:31:32.065Z,55.75
2019-03-18T05:36:43.338Z,56.54
2019-03-18T05:41:53.594Z,55.70
2019-03-18T05:47:05.178Z,56.15
2019-03-18T05:52:16.213Z,55.33
2019-03-18T05:57:26.885Z,55.99
2019-03-18T06:02:35.049Z,54.33
2019-03-18T06:07:40.655Z,55.50
2019-03-18T06:12:47.845Z,55.68
2019-03-18T06:17:53.531Z,56.08
2019-03-18T06:23:01.146Z,56.23
2019-03-18T06:28:07.191Z,55.14
2019-03-18T06:33:13.559Z,54.93
2019-03-18T06:38:19.742Z,54.06
2019-03-18T06:43:26.930Z,54.19
2019-03-18T06:48:34.273Z,53.89
2019-03-18T06:53:41.465Z,54.40
2019-03-18T06:58:49.245Z,54.43
2019-03-18T07:03:54.971Z,53.83
2019-03-18T07:09:01.924Z,52.84
2019-03-18T07:14:08.999Z,53.51
2019-03-18T07:19:15.546Z,53.60
2019-03-18T07:24:21.434Z,53.49
2019-03-18T07:29:28.847Z,53.69
2019-03-18T07:34:35.236Z,52.91
2019-03-18T07:39:42.398Z,53.52
2019-03-18T07:44:49.993Z,53.57
2019-03-18T07:49:57.754Z,53.27
2019-03-18T07:55:04.894Z,53.77
2019-03-18T08:00:18.257Z,53.24
2019-03-18T08:05:23.781Z,53.04
2019-03-18T08:10:30.912Z,53.84
2019-03-18T08:15:37.285Z,53.28
2019-03-18T08:20:43.250Z,54.43
2019-03-18T08:25:48.797Z,53.33
2019-03-18T08:30:55.174Z,52.91
2019-03-18T08:36:01.540Z,52.88
2019-03-18T08:41:08.386Z,52.18
2019-03-18T08:46:14.403Z,52.01
2019-03-18T08:51:19.933Z,52.39
2019-03-18T08:56:29.655Z,52.00
2019-03-18T09:01:36.226Z,51.36
2019-03-18T09:06:42.050Z,51.49
2019-03-18T09:11:48.114Z,51.06
2019-03-18T09:16:53.654Z,50.98
2019-03-18T09:21:59.488Z,52.63
2019-03-18T09:27:05.312Z,52.09
2019-03-18T09:32:11.501Z,51.99
2019-03-18T09:37:17.325Z,51.79
2019-03-18T09:42:24.582Z,51.74
2019-03-18T09:47:31.617Z,51.31
2019-03-18T09:52:37.741Z,50.69
2019-03-18T09:57:43.339Z,52.23
2019-03-18T10:02:48.899Z,50.43
2019-03-18T10:07:54.725Z,50.29
2019-03-18T10:13:04.475Z,49.56
2019-03-18T10:18:11.105Z,50.86
2019-03-18T10:23:18.395Z,51.21
2019-03-18T10:28:24.115Z,51.87
2019-03-18T10:33:31.817Z,52.30
2019-03-18T10:38:37.913Z,51.46
2019-03-18T10:43:43.527Z,50.06
2019-03-18T10:48:50.353Z,49.34
2019-03-18T10:53:56.939Z,49.04
2019-03-18T10:59:03.226Z,48.65
2019-03-18T11:04:08.761Z,50.08
2019-03-18T11:09:15.576Z,53.22
2019-03-18T11:14:22.023Z,56.84
2019-03-18T11:19:28.851Z,57.13
2019-03-18T11:24:35.362Z,58.77
2019-03-18T11:29:41.211Z,58.05
2019-03-18T11:34:47.694Z,57.05
2019-03-18T11:39:53.389Z,55.22
2019-03-18T11:44:59.386Z,51.79
2019-03-18T11:50:11.504Z,49.82
2019-03-18T11:55:22.053Z,48.96
2019-03-18T12:00:28.178Z,49.02
2019-03-18T12:05:35.082Z,50.25
2019-03-18T12:10:40.702Z,48.90
2019-03-18T12:15:47.247Z,47.82
2019-03-18T12:20:52.814Z,45.50
2019-03-18T12:25:58.752Z,44.80
2019-03-18T12:31:05.138Z,44.45
2019-03-18T12:36:11.577Z,44.25
2019-03-18T12:41:17.552Z,50.06
2019-03-18T12:46:24.149Z,53.58
2019-03-18T12:51:30.385Z,52.87
2019-03-18T12:56:36.177Z,51.03
2019-03-18T13:01:42.611Z,53.76
2019-03-18T13:06:51.077Z,55.73
2019-03-18T13:11:56.641Z,51.09
2019-03-18T13:17:03.761Z,48.93
2019-03-18T13:22:10.259Z,47.82
2019-03-18T13:27:17.416Z,45.78
2019-03-18T13:32:23.693Z,46.52
2019-03-18T13:37:29.265Z,45.85
2019-03-18T13:42:35.702Z,47.21
2019-03-18T13:47:41.746Z,49.30
2019-03-18T13:52:47.542Z,49.98
2019-03-18T13:57:53.287Z,53.48
2019-03-18T14:02:58.911Z,49.87
2019-03-18T14:08:05.421Z,49.15
2019-03-18T14:13:11.365Z,50.02
2019-03-18T14:18:18.070Z,47.58
2019-03-18T14:23:25.184Z,47.24
2019-03-18T14:28:34.658Z,46.03
2019-03-18T14:33:42.245Z,45.84
2019-03-18T14:38:47.973Z,43.34
2019-03-18T14:43:54.827Z,41.19
2019-03-18T14:49:01.400Z,43.00
2019-03-18T14:54:06.953Z,45.47
2019-03-18T14:59:15.654Z,47.35
2019-03-18T15:04:21.774Z,48.31
2019-03-18T15:09:27.941Z,46.92
2019-03-18T15:14:34.357Z,44.77
2019-03-18T15:19:40.325Z,46.65
2019-03-18T15:24:46.232Z,46.13
2019-03-18T15:29:52.137Z,48.80
2019-03-18T15:34:58.085Z,51.80
2019-03-18T15:40:05.872Z,52.81
2019-03-18T15:45:14.736Z,54.48
2019-03-18T15:50:26.431Z,54.13
2019-03-18T15:55:33.958Z,51.48
2019-03-18T16:00:41.668Z,49.78
2019-03-18T16:05:47.736Z,51.13
2019-03-18T16:10:55.203Z,50.86
2019-03-18T16:16:01.036Z,50.02
2019-03-18T16:21:08.301Z,51.66
2019-03-18T16:26:14.015Z,51.92
2019-03-18T16:31:19.848Z,51.37
2019-03-18T16:36:26.058Z,52.83
2019-03-18T16:41:33.881Z,49.41
2019-03-18T16:46:39.752Z,50.20
2019-03-18T16:51:47.547Z,52.34
2019-03-18T16:56:54.937Z,52.94
2019-03-18T17:02:01.717Z,52.20
2019-03-18T17:07:07.637Z,53.27
2019-03-18T17:12:15.781Z,53.11
2019-03-18T17:17:21.509Z,54.26
2019-03-18T17:22:28.510Z,58.06
2019-03-18T17:27:34.720Z,64.75
2019-03-18T17:32:40.730Z,66.85
2019-03-18T17:37:46.291Z,68.30
2019-03-18T17:42:52.949Z,65.51
2019-03-18T17:47:58.511Z,64.47
2019-03-18T17:53:04.377Z,62.98
2019-03-18T17:58:10.506Z,63.60
2019-03-18T18:03:16.127Z,63.69
2019-03-18T18:08:22.140Z,64.24
2019-03-18T18:13:29.237Z,64.23
2019-03-18T18:18:36.530Z,63.82
2019-03-18T18:23:42.097Z,63.61
2019-03-18T18:28:50.364Z,62.60
2019-03-18T18:33:56.299Z,62.75
2019-03-18T18:39:04.560Z,62.96
2019-03-18T18:44:10.397Z,62.98
2019-03-18T18:49:16.695Z,63.32
2019-03-18T18:54:22.329Z,63.26
2019-03-18T18:59:28.826Z,62.90
2019-03-18T19:04:34.565Z,63.84
2019-03-18T19:09:40.133Z,62.87
2019-03-18T19:14:45.777Z,62.03
2019-03-18T19:19:52.219Z,63.60
2019-03-18T19:24:57.907Z,62.90
2019-03-18T19:30:05.406Z,63.03
2019-03-18T19:35:11.143Z,63.57
2019-03-18T19:40:19.548Z,63.07
2019-03-18T19:45:26.860Z,62.71
2019-03-18T19:50:33.466Z,63.04
2019-03-18T19:55:39.714Z,62.52
2019-03-18T20:00:45.815Z,62.87
2019-03-18T20:05:52.374Z,62.60
2019-03-18T20:10:58.911Z,63.24
2019-03-18T20:16:06.512Z,62.05
2019-03-18T20:21:13.483Z,62.63
2019-03-18T20:26:19.701Z,62.92
2019-03-18T20:31:26.295Z,62.79
2019-03-18T20:36:32.649Z,62.61
2019-03-18T20:41:38.574Z,62.99
2019-03-18T20:46:45.012Z,63.07
2019-03-18T20:51:50.585Z,63.07
2019-03-18T20:56:56.167Z,62.78
2019-03-18T21:02:03.890Z,62.50
2019-03-18T21:07:09.871Z,61.50
2019-03-18T21:12:15.786Z,61.80
2019-03-18T21:17:21.903Z,62.26
2019-03-18T21:22:27.837Z,61.60
2019-03-18T21:27:33.597Z,61.73
2019-03-18T21:32:40.222Z,61.64
2019-03-18T21:37:46.020Z,62.18
2019-03-18T21:42:53.615Z,62.08
2019-03-18T21:47:59.439Z,62.07
2019-03-18T21:53:05.432Z,61.35
2019-03-18T21:58:11.012Z,61.25
2019-03-18T22:03:17.172Z,61.37
2019-03-18T22:08:22.984Z,61.46
2019-03-18T22:13:29.242Z,60.87
2019-03-18T22:18:36.517Z,60.49
2019-03-18T22:23:42.814Z,61.50
2019-03-18T22:28:48.361Z,61.47
2019-03-18T22:33:55.807Z,60.84
2019-03-18T22:39:03.280Z,61.24
2019-03-18T22:44:09.024Z,62.76
2019-03-18T22:49:14.879Z,61.94
2019-03-18T22:54:22.049Z,61.77
2019-03-18T22:59:27.711Z,61.54
2019-03-18T23:04:34.885Z,62.42
2019-03-18T23:09:40.714Z,62.95
2019-03-18T23:14:46.964Z,61.76
2019-03-18T23:19:53.152Z,61.31
2019-03-18T23:25:07.182Z,61.91
2019-03-18T23:30:13.811Z,59.81
2019-03-18T23:35:19.653Z,61.61
2019-03-18T23:40:25.229Z,62.20
2019-03-18T23:45:30.811Z,62.62
2019-03-18T23:50:36.480Z,62.58
2019-03-18T23:55:42.474Z,62.46
